sensor_id;sensor_type;location;lat;lon;timestamp;P1;durP1;ratioP1;P2;durP2;ratioP2
5620;SDS011;2832;50.864;12.186;2023-06-24T00:02:06;0.77;;;0.77;;
5620;SDS011;2832;50.864;12.186;2023-06-24T00:04:55;0.80;;;0.80;;
5620;SDS011;2832;50.864;12.186;2023-06-24T00:07:45;0.80;;;0.80;;
5620;SDS011;2832;50.864;12.186;2023-06-24T00:10:34;0.70;;;0.70;;
5620;SDS011;2832;50.864;12.186;2023-06-24T00:13:23;0.80;;;0.80;;
5620;SDS011;2832;50.864;12.186;2023-06-24T00:16:12;0.80;;;0.80;;
5620;SDS011;2832;50.864;12.186;2023-06-24T00:18:59;0.90;;;0.90;;
5620;SDS011;2832;50.864;12.186;2023-06-24T00:21:58;0.90;;;0.90;;
5620;SDS011;2832;50.864;12.186;2023-06-24T00:24:49;0.80;;;0.80;;
5620;SDS011;2832;50.864;12.186;2023-06-24T00:27:36;0.80;;;0.80;;
5620;SDS011;2832;50.864;12.186;2023-06-24T00:30:26;0.83;;;0.83;;
5620;SDS011;2832;50.864;12.186;2023-06-24T00:33:15;0.90;;;0.90;;
5620;SDS011;2832;50.864;12.186;2023-06-24T00:36:05;0.80;;;0.80;;
5620;SDS011;2832;50.864;12.186;2023-06-24T00:39:02;0.80;;;0.80;;
5620;SDS011;2832;50.864;12.186;2023-06-24T00:41:51;0.80;;;0.80;;
5620;SDS011;2832;50.864;12.186;2023-06-24T00:44:42;0.80;;;0.80;;
5620;SDS011;2832;50.864;12.186;2023-06-24T00:47:30;0.80;;;0.80;;
5620;SDS011;2832;50.864;12.186;2023-06-24T00:50:19;0.77;;;0.77;;
5620;SDS011;2832;50.864;12.186;2023-06-24T00:53:06;0.80;;;0.80;;
5620;SDS011;2832;50.864;12.186;2023-06-24T00:56:04;0.80;;;0.80;;
5620;SDS011;2832;50.864;12.186;2023-06-24T00:58:57;0.90;;;0.90;;
5620;SDS011;2832;50.864;12.186;2023-06-24T01:01:47;0.80;;;0.80;;
5620;SDS011;2832;50.864;12.186;2023-06-24T01:04:38;0.80;;;0.80;;
5620;SDS011;2832;50.864;12.186;2023-06-24T01:07:29;0.73;;;0.73;;
5620;SDS011;2832;50.864;12.186;2023-06-24T01:10:22;0.80;;;0.80;;
5620;SDS011;2832;50.864;12.186;2023-06-24T01:13:18;0.80;;;0.80;;
5620;SDS011;2832;50.864;12.186;2023-06-24T01:16:10;0.77;;;0.77;;
5620;SDS011;2832;50.864;12.186;2023-06-24T01:19:07;0.80;;;0.80;;
5620;SDS011;2832;50.864;12.186;2023-06-24T01:22:13;0.90;;;0.90;;
5620;SDS011;2832;50.864;12.186;2023-06-24T01:25:13;0.80;;;0.80;;
5620;SDS011;2832;50.864;12.186;2023-06-24T01:31:29;0.90;;;0.90;;
5620;SDS011;2832;50.864;12.186;2023-06-24T01:34:24;0.80;;;0.80;;
5620;SDS011;2832;50.864;12.186;2023-06-24T01:37:17;0.90;;;0.90;;
5620;SDS011;2832;50.864;12.186;2023-06-24T01:40:09;0.80;;;0.80;;
5620;SDS011;2832;50.864;12.186;2023-06-24T01:42:59;0.90;;;0.90;;
5620;SDS011;2832;50.864;12.186;2023-06-24T01:45:50;0.83;;;0.83;;
5620;SDS011;2832;50.864;12.186;2023-06-24T01:48:41;0.77;;;0.77;;
5620;SDS011;2832;50.864;12.186;2023-06-24T01:51:32;0.90;;;0.90;;
5620;SDS011;2832;50.864;12.186;2023-06-24T01:54:22;0.80;;;0.80;;
5620;SDS011;2832;50.864;12.186;2023-06-24T01:57:17;0.90;;;0.90;;
5620;SDS011;2832;50.864;12.186;2023-06-24T02:00:08;0.80;;;0.80;;
5620;SDS011;2832;50.864;12.186;2023-06-24T02:02:58;0.80;;;0.80;;
5620;SDS011;2832;50.864;12.186;2023-06-24T02:05:49;0.80;;;0.80;;
5620;SDS011;2832;50.864;12.186;2023-06-24T02:08:39;0.70;;;0.70;;
5620;SDS011;2832;50.864;12.186;2023-06-24T02:11:28;0.73;;;0.73;;
5620;SDS011;2832;50.864;12.186;2023-06-24T02:14:19;0.77;;;0.77;;
5620;SDS011;2832;50.864;12.186;2023-06-24T02:17:08;0.70;;;0.70;;
5620;SDS011;2832;50.864;12.186;2023-06-24T02:19:57;0.80;;;0.80;;
5620;SDS011;2832;50.864;12.186;2023-06-24T02:22:48;0.90;;;0.90;;
5620;SDS011;2832;50.864;12.186;2023-06-24T02:25:36;0.80;;;0.80;;
5620;SDS011;2832;50.864;12.186;2023-06-24T02:28:26;0.80;;;0.80;;
5620;SDS011;2832;50.864;12.186;2023-06-24T02:31:15;0.80;;;0.80;;
5620;SDS011;2832;50.864;12.186;2023-06-24T02:34:04;0.80;;;0.80;;
5620;SDS011;2832;50.864;12.186;2023-06-24T02:36:52;0.80;;;0.80;;
5620;SDS011;2832;50.864;12.186;2023-06-24T02:39:42;0.80;;;0.80;;
5620;SDS011;2832;50.864;12.186;2023-06-24T02:42:30;0.80;;;0.80;;
5620;SDS011;2832;50.864;12.186;2023-06-24T02:45:17;0.80;;;0.80;;
5620;SDS011;2832;50.864;12.186;2023-06-24T02:48:05;0.80;;;0.80;;
5620;SDS011;2832;50.864;12.186;2023-06-24T02:50:54;0.80;;;0.80;;
5620;SDS011;2832;50.864;12.186;2023-06-24T02:53:43;0.80;;;0.80;;
5620;SDS011;2832;50.864;12.186;2023-06-24T02:56:34;0.90;;;0.90;;
5620;SDS011;2832;50.864;12.186;2023-06-24T02:59:29;0.80;;;0.80;;
5620;SDS011;2832;50.864;12.186;2023-06-24T03:02:17;0.80;;;0.80;;
5620;SDS011;2832;50.864;12.186;2023-06-24T03:05:05;0.80;;;0.80;;
5620;SDS011;2832;50.864;12.186;2023-06-24T03:08:11;0.90;;;0.90;;
5620;SDS011;2832;50.864;12.186;2023-06-24T03:10:59;0.80;;;0.80;;
5620;SDS011;2832;50.864;12.186;2023-06-24T03:13:49;0.70;;;0.70;;
5620;SDS011;2832;50.864;12.186;2023-06-24T03:16:37;0.80;;;0.80;;
5620;SDS011;2832;50.864;12.186;2023-06-24T03:19:25;0.80;;;0.80;;
5620;SDS011;2832;50.864;12.186;2023-06-24T03:22:14;0.83;;;0.83;;
5620;SDS011;2832;50.864;12.186;2023-06-24T03:25:04;0.80;;;0.80;;
5620;SDS011;2832;50.864;12.186;2023-06-24T03:27:52;0.80;;;0.80;;
5620;SDS011;2832;50.864;12.186;2023-06-24T03:30:42;0.80;;;0.80;;
5620;SDS011;2832;50.864;12.186;2023-06-24T03:39:50;0.80;;;0.80;;
5620;SDS011;2832;50.864;12.186;2023-06-24T03:42:38;0.20;;;0.20;;
5620;SDS011;2832;50.864;12.186;2023-06-24T03:45:25;0.10;;;0.10;;
5620;SDS011;2832;50.864;12.186;2023-06-24T03:48:15;0.20;;;0.20;;
5620;SDS011;2832;50.864;12.186;2023-06-24T03:51:03;0.10;;;0.10;;
5620;SDS011;2832;50.864;12.186;2023-06-24T03:53:56;0.10;;;0.10;;
5620;SDS011;2832;50.864;12.186;2023-06-24T03:56:48;0.10;;;0.10;;
5620;SDS011;2832;50.864;12.186;2023-06-24T03:59:36;0.20;;;0.20;;
5620;SDS011;2832;50.864;12.186;2023-06-24T04:02:24;0.20;;;0.20;;
5620;SDS011;2832;50.864;12.186;2023-06-24T04:05:18;0.20;;;0.20;;
5620;SDS011;2832;50.864;12.186;2023-06-24T04:08:07;0.30;;;0.30;;
5620;SDS011;2832;50.864;12.186;2023-06-24T04:10:55;0.20;;;0.20;;
5620;SDS011;2832;50.864;12.186;2023-06-24T04:13:53;0.10;;;0.10;;
5620;SDS011;2832;50.864;12.186;2023-06-24T04:16:45;0.17;;;0.17;;
5620;SDS011;2832;50.864;12.186;2023-06-24T04:19:35;0.20;;;0.20;;
5620;SDS011;2832;50.864;12.186;2023-06-24T04:22:26;0.80;;;0.80;;
5620;SDS011;2832;50.864;12.186;2023-06-24T04:25:14;0.70;;;0.70;;
5620;SDS011;2832;50.864;12.186;2023-06-24T04:28:01;0.80;;;0.80;;
5620;SDS011;2832;50.864;12.186;2023-06-24T04:30:50;0.80;;;0.80;;
5620;SDS011;2832;50.864;12.186;2023-06-24T04:33:40;0.70;;;0.70;;
5620;SDS011;2832;50.864;12.186;2023-06-24T04:36:31;0.80;;;0.80;;
5620;SDS011;2832;50.864;12.186;2023-06-24T04:39:22;0.80;;;0.80;;
5620;SDS011;2832;50.864;12.186;2023-06-24T04:42:10;0.80;;;0.80;;
5620;SDS011;2832;50.864;12.186;2023-06-24T04:44:58;0.80;;;0.80;;
5620;SDS011;2832;50.864;12.186;2023-06-24T04:47:47;0.90;;;0.90;;
5620;SDS011;2832;50.864;12.186;2023-06-24T04:50:34;0.80;;;0.80;;
5620;SDS011;2832;50.864;12.186;2023-06-24T04:53:24;0.80;;;0.80;;
5620;SDS011;2832;50.864;12.186;2023-06-24T04:56:13;0.90;;;0.90;;
5620;SDS011;2832;50.864;12.186;2023-06-24T04:59:03;0.80;;;0.80;;
5620;SDS011;2832;50.864;12.186;2023-06-24T05:01:54;0.77;;;0.77;;
5620;SDS011;2832;50.864;12.186;2023-06-24T05:04:42;0.80;;;0.80;;
5620;SDS011;2832;50.864;12.186;2023-06-24T05:07:30;0.70;;;0.70;;
5620;SDS011;2832;50.864;12.186;2023-06-24T05:10:18;0.80;;;0.80;;
5620;SDS011;2832;50.864;12.186;2023-06-24T05:13:09;0.80;;;0.80;;
5620;SDS011;2832;50.864;12.186;2023-06-24T05:15:56;0.70;;;0.70;;
5620;SDS011;2832;50.864;12.186;2023-06-24T05:18:45;0.80;;;0.80;;
5620;SDS011;2832;50.864;12.186;2023-06-24T05:21:39;0.90;;;0.90;;
5620;SDS011;2832;50.864;12.186;2023-06-24T05:24:31;0.77;;;0.77;;
5620;SDS011;2832;50.864;12.186;2023-06-24T05:27:19;0.80;;;0.80;;
5620;SDS011;2832;50.864;12.186;2023-06-24T05:30:10;0.80;;;0.80;;
5620;SDS011;2832;50.864;12.186;2023-06-24T05:33:00;0.80;;;0.80;;
5620;SDS011;2832;50.864;12.186;2023-06-24T05:35:55;0.80;;;0.80;;
5620;SDS011;2832;50.864;12.186;2023-06-24T05:38:48;0.80;;;0.80;;
5620;SDS011;2832;50.864;12.186;2023-06-24T05:41:39;0.90;;;0.90;;
5620;SDS011;2832;50.864;12.186;2023-06-24T05:44:29;0.80;;;0.80;;
5620;SDS011;2832;50.864;12.186;2023-06-24T05:47:18;0.80;;;0.80;;
5620;SDS011;2832;50.864;12.186;2023-06-24T05:50:06;0.80;;;0.80;;
5620;SDS011;2832;50.864;12.186;2023-06-24T05:52:54;0.87;;;0.87;;
5620;SDS011;2832;50.864;12.186;2023-06-24T05:55:43;0.80;;;0.80;;
5620;SDS011;2832;50.864;12.186;2023-06-24T05:58:31;0.70;;;0.70;;
5620;SDS011;2832;50.864;12.186;2023-06-24T06:01:20;0.80;;;0.80;;
5620;SDS011;2832;50.864;12.186;2023-06-24T06:04:16;0.80;;;0.80;;
5620;SDS011;2832;50.864;12.186;2023-06-24T06:07:06;0.80;;;0.80;;
5620;SDS011;2832;50.864;12.186;2023-06-24T06:09:54;0.80;;;0.80;;
5620;SDS011;2832;50.864;12.186;2023-06-24T06:12:43;0.80;;;0.80;;
5620;SDS011;2832;50.864;12.186;2023-06-24T06:15:36;0.80;;;0.80;;
5620;SDS011;2832;50.864;12.186;2023-06-24T06:18:28;0.80;;;0.80;;
5620;SDS011;2832;50.864;12.186;2023-06-24T06:21:20;0.83;;;0.83;;
5620;SDS011;2832;50.864;12.186;2023-06-24T06:24:09;0.90;;;0.90;;
5620;SDS011;2832;50.864;12.186;2023-06-24T06:27:01;0.80;;;0.80;;
5620;SDS011;2832;50.864;12.186;2023-06-24T06:29:49;0.90;;;0.90;;
5620;SDS011;2832;50.864;12.186;2023-06-24T06:32:37;0.80;;;0.80;;
5620;SDS011;2832;50.864;12.186;2023-06-24T06:35:26;0.80;;;0.80;;
5620;SDS011;2832;50.864;12.186;2023-06-24T06:38:16;0.80;;;0.80;;
5620;SDS011;2832;50.864;12.186;2023-06-24T06:41:07;0.80;;;0.80;;
5620;SDS011;2832;50.864;12.186;2023-06-24T06:43:57;0.90;;;0.90;;
5620;SDS011;2832;50.864;12.186;2023-06-24T06:46:46;0.80;;;0.80;;
5620;SDS011;2832;50.864;12.186;2023-06-24T06:49:38;0.87;;;0.87;;
5620;SDS011;2832;50.864;12.186;2023-06-24T06:52:33;0.87;;;0.87;;
5620;SDS011;2832;50.864;12.186;2023-06-24T06:55:27;0.77;;;0.77;;
5620;SDS011;2832;50.864;12.186;2023-06-24T06:58:14;0.80;;;0.80;;
5620;SDS011;2832;50.864;12.186;2023-06-24T07:01:03;0.80;;;0.80;;
5620;SDS011;2832;50.864;12.186;2023-06-24T07:03:55;0.83;;;0.83;;
5620;SDS011;2832;50.864;12.186;2023-06-24T07:06:42;0.77;;;0.77;;
5620;SDS011;2832;50.864;12.186;2023-06-24T07:09:31;0.80;;;0.80;;
5620;SDS011;2832;50.864;12.186;2023-06-24T07:12:23;0.90;;;0.90;;
5620;SDS011;2832;50.864;12.186;2023-06-24T07:15:12;0.90;;;0.90;;
5620;SDS011;2832;50.864;12.186;2023-06-24T07:17:59;0.80;;;0.80;;
5620;SDS011;2832;50.864;12.186;2023-06-24T07:20:47;0.80;;;0.80;;
5620;SDS011;2832;50.864;12.186;2023-06-24T07:23:36;0.90;;;0.90;;
5620;SDS011;2832;50.864;12.186;2023-06-24T07:26:24;0.90;;;0.90;;
5620;SDS011;2832;50.864;12.186;2023-06-24T07:29:16;0.80;;;0.80;;
5620;SDS011;2832;50.864;12.186;2023-06-24T07:32:13;0.80;;;0.80;;
5620;SDS011;2832;50.864;12.186;2023-06-24T07:35:07;0.80;;;0.80;;
5620;SDS011;2832;50.864;12.186;2023-06-24T07:37:56;0.80;;;0.80;;
5620;SDS011;2832;50.864;12.186;2023-06-24T07:40:43;0.80;;;0.80;;
5620;SDS011;2832;50.864;12.186;2023-06-24T07:43:31;0.80;;;0.80;;
5620;SDS011;2832;50.864;12.186;2023-06-24T07:46:26;0.80;;;0.80;;
5620;SDS011;2832;50.864;12.186;2023-06-24T07:49:15;0.80;;;0.80;;
5620;SDS011;2832;50.864;12.186;2023-06-24T07:52:06;0.80;;;0.80;;
5620;SDS011;2832;50.864;12.186;2023-06-24T07:54:54;0.73;;;0.73;;
5620;SDS011;2832;50.864;12.186;2023-06-24T07:57:47;0.90;;;0.90;;
5620;SDS011;2832;50.864;12.186;2023-06-24T08:00:34;0.90;;;0.90;;
5620;SDS011;2832;50.864;12.186;2023-06-24T08:03:24;0.80;;;0.80;;
5620;SDS011;2832;50.864;12.186;2023-06-24T08:06:12;0.90;;;0.90;;
5620;SDS011;2832;50.864;12.186;2023-06-24T08:09:05;0.90;;;0.90;;
5620;SDS011;2832;50.864;12.186;2023-06-24T08:11:53;0.90;;;0.90;;
5620;SDS011;2832;50.864;12.186;2023-06-24T08:14:41;0.80;;;0.80;;
5620;SDS011;2832;50.864;12.186;2023-06-24T08:17:29;0.90;;;0.90;;
5620;SDS011;2832;50.864;12.186;2023-06-24T08:20:19;0.90;;;0.90;;
5620;SDS011;2832;50.864;12.186;2023-06-24T08:23:08;0.90;;;0.90;;
5620;SDS011;2832;50.864;12.186;2023-06-24T08:26:00;0.83;;;0.83;;
5620;SDS011;2832;50.864;12.186;2023-06-24T08:29:06;0.80;;;0.80;;
5620;SDS011;2832;50.864;12.186;2023-06-24T08:31:59;0.80;;;0.80;;
5620;SDS011;2832;50.864;12.186;2023-06-24T08:34:58;0.80;;;0.80;;
5620;SDS011;2832;50.864;12.186;2023-06-24T08:37:59;0.80;;;0.80;;
5620;SDS011;2832;50.864;12.186;2023-06-24T08:40:50;0.90;;;0.90;;
5620;SDS011;2832;50.864;12.186;2023-06-24T08:43:42;0.80;;;0.80;;
5620;SDS011;2832;50.864;12.186;2023-06-24T08:46:30;0.83;;;0.83;;
5620;SDS011;2832;50.864;12.186;2023-06-24T08:49:27;0.80;;;0.80;;
5620;SDS011;2832;50.864;12.186;2023-06-24T08:52:32;0.80;;;0.80;;
5620;SDS011;2832;50.864;12.186;2023-06-24T08:55:29;0.80;;;0.80;;
5620;SDS011;2832;50.864;12.186;2023-06-24T08:58:21;0.80;;;0.80;;
5620;SDS011;2832;50.864;12.186;2023-06-24T09:01:15;0.80;;;0.80;;
5620;SDS011;2832;50.864;12.186;2023-06-24T09:04:04;0.90;;;0.90;;
5620;SDS011;2832;50.864;12.186;2023-06-24T09:06:52;0.90;;;0.90;;
5620;SDS011;2832;50.864;12.186;2023-06-24T09:09:43;0.80;;;0.80;;
5620;SDS011;2832;50.864;12.186;2023-06-24T09:12:34;0.80;;;0.80;;
5620;SDS011;2832;50.864;12.186;2023-06-24T09:15:23;0.80;;;0.80;;
5620;SDS011;2832;50.864;12.186;2023-06-24T09:18:14;0.90;;;0.90;;
5620;SDS011;2832;50.864;12.186;2023-06-24T09:21:05;0.90;;;0.90;;
5620;SDS011;2832;50.864;12.186;2023-06-24T09:23:53;0.90;;;0.90;;
5620;SDS011;2832;50.864;12.186;2023-06-24T09:26:42;0.83;;;0.83;;
5620;SDS011;2832;50.864;12.186;2023-06-24T09:29:33;0.90;;;0.90;;
5620;SDS011;2832;50.864;12.186;2023-06-24T09:32:22;0.90;;;0.90;;
5620;SDS011;2832;50.864;12.186;2023-06-24T09:35:16;0.80;;;0.80;;
5620;SDS011;2832;50.864;12.186;2023-06-24T09:38:10;0.80;;;0.80;;
5620;SDS011;2832;50.864;12.186;2023-06-24T09:41:01;0.90;;;0.90;;
5620;SDS011;2832;50.864;12.186;2023-06-24T09:43:50;0.80;;;0.80;;
5620;SDS011;2832;50.864;12.186;2023-06-24T09:46:40;0.80;;;0.80;;
5620;SDS011;2832;50.864;12.186;2023-06-24T09:49:29;0.90;;;0.90;;
5620;SDS011;2832;50.864;12.186;2023-06-24T09:52:18;0.83;;;0.83;;
5620;SDS011;2832;50.864;12.186;2023-06-24T09:55:15;0.80;;;0.80;;
5620;SDS011;2832;50.864;12.186;2023-06-24T09:58:11;0.80;;;0.80;;
5620;SDS011;2832;50.864;12.186;2023-06-24T10:01:15;0.87;;;0.87;;
5620;SDS011;2832;50.864;12.186;2023-06-24T10:04:23;0.80;;;0.80;;
5620;SDS011;2832;50.864;12.186;2023-06-24T10:07:34;0.90;;;0.90;;
5620;SDS011;2832;50.864;12.186;2023-06-24T10:10:31;0.80;;;0.80;;
5620;SDS011;2832;50.864;12.186;2023-06-24T10:13:20;0.90;;;0.90;;
5620;SDS011;2832;50.864;12.186;2023-06-24T10:16:08;0.80;;;0.80;;
5620;SDS011;2832;50.864;12.186;2023-06-24T10:19:00;0.90;;;0.90;;
5620;SDS011;2832;50.864;12.186;2023-06-24T10:21:55;0.70;;;0.70;;
5620;SDS011;2832;50.864;12.186;2023-06-24T10:24:47;0.80;;;0.80;;
5620;SDS011;2832;50.864;12.186;2023-06-24T10:27:40;0.83;;;0.83;;
5620;SDS011;2832;50.864;12.186;2023-06-24T10:30:28;0.80;;;0.80;;
5620;SDS011;2832;50.864;12.186;2023-06-24T10:33:22;0.80;;;0.80;;
5620;SDS011;2832;50.864;12.186;2023-06-24T10:36:31;0.80;;;0.80;;
5620;SDS011;2832;50.864;12.186;2023-06-24T10:39:38;0.80;;;0.80;;
5620;SDS011;2832;50.864;12.186;2023-06-24T10:42:37;0.83;;;0.83;;
5620;SDS011;2832;50.864;12.186;2023-06-24T10:45:34;0.90;;;0.90;;
5620;SDS011;2832;50.864;12.186;2023-06-24T10:48:29;0.80;;;0.80;;
5620;SDS011;2832;50.864;12.186;2023-06-24T10:51:21;0.80;;;0.80;;
5620;SDS011;2832;50.864;12.186;2023-06-24T10:54:09;0.80;;;0.80;;
5620;SDS011;2832;50.864;12.186;2023-06-24T10:57:03;0.90;;;0.90;;
5620;SDS011;2832;50.864;12.186;2023-06-24T10:59:56;0.90;;;0.90;;
5620;SDS011;2832;50.864;12.186;2023-06-24T11:02:45;0.80;;;0.80;;
5620;SDS011;2832;50.864;12.186;2023-06-24T11:05:37;0.90;;;0.90;;
5620;SDS011;2832;50.864;12.186;2023-06-24T11:08:34;0.90;;;0.90;;
5620;SDS011;2832;50.864;12.186;2023-06-24T11:11:33;0.90;;;0.90;;
5620;SDS011;2832;50.864;12.186;2023-06-24T11:14:24;0.90;;;0.90;;
5620;SDS011;2832;50.864;12.186;2023-06-24T11:17:25;0.90;;;0.90;;
5620;SDS011;2832;50.864;12.186;2023-06-24T11:20:14;0.80;;;0.80;;
5620;SDS011;2832;50.864;12.186;2023-06-24T11:23:06;0.80;;;0.80;;
5620;SDS011;2832;50.864;12.186;2023-06-24T11:25:55;0.80;;;0.80;;
5620;SDS011;2832;50.864;12.186;2023-06-24T11:28:53;0.80;;;0.80;;
5620;SDS011;2832;50.864;12.186;2023-06-24T11:31:48;0.80;;;0.80;;
5620;SDS011;2832;50.864;12.186;2023-06-24T11:34:37;0.90;;;0.90;;
5620;SDS011;2832;50.864;12.186;2023-06-24T11:37:44;0.90;;;0.90;;
5620;SDS011;2832;50.864;12.186;2023-06-24T11:40:39;0.87;;;0.87;;
5620;SDS011;2832;50.864;12.186;2023-06-24T11:43:27;0.80;;;0.80;;
5620;SDS011;2832;50.864;12.186;2023-06-24T11:46:26;0.80;;;0.80;;
5620;SDS011;2832;50.864;12.186;2023-06-24T11:49:28;0.80;;;0.80;;
5620;SDS011;2832;50.864;12.186;2023-06-24T11:52:28;0.80;;;0.80;;
5620;SDS011;2832;50.864;12.186;2023-06-24T11:55:38;0.73;;;0.73;;
5620;SDS011;2832;50.864;12.186;2023-06-24T11:58:26;0.80;;;0.80;;
5620;SDS011;2832;50.864;12.186;2023-06-24T12:01:23;0.80;;;0.80;;
5620;SDS011;2832;50.864;12.186;2023-06-24T12:04:20;0.73;;;0.73;;
5620;SDS011;2832;50.864;12.186;2023-06-24T12:07:19;0.80;;;0.80;;
5620;SDS011;2832;50.864;12.186;2023-06-24T12:10:09;0.90;;;0.90;;
5620;SDS011;2832;50.864;12.186;2023-06-24T12:12:57;0.80;;;0.80;;
5620;SDS011;2832;50.864;12.186;2023-06-24T12:15:56;0.80;;;0.80;;
5620;SDS011;2832;50.864;12.186;2023-06-24T12:19:27;0.70;;;0.70;;
5620;SDS011;2832;50.864;12.186;2023-06-24T12:22:53;0.80;;;0.80;;
5620;SDS011;2832;50.864;12.186;2023-06-24T12:25:49;0.80;;;0.80;;
5620;SDS011;2832;50.864;12.186;2023-06-24T12:28:37;0.80;;;0.80;;
5620;SDS011;2832;50.864;12.186;2023-06-24T12:31:28;0.73;;;0.73;;
5620;SDS011;2832;50.864;12.186;2023-06-24T12:34:26;0.80;;;0.80;;
5620;SDS011;2832;50.864;12.186;2023-06-24T12:37:14;0.90;;;0.90;;
5620;SDS011;2832;50.864;12.186;2023-06-24T12:40:04;0.80;;;0.80;;
5620;SDS011;2832;50.864;12.186;2023-06-24T12:42:53;0.80;;;0.80;;
5620;SDS011;2832;50.864;12.186;2023-06-24T12:45:43;0.80;;;0.80;;
5620;SDS011;2832;50.864;12.186;2023-06-24T12:48:31;0.80;;;0.80;;
5620;SDS011;2832;50.864;12.186;2023-06-24T12:51:21;0.80;;;0.80;;
5620;SDS011;2832;50.864;12.186;2023-06-24T12:54:12;0.80;;;0.80;;
5620;SDS011;2832;50.864;12.186;2023-06-24T12:57:05;0.80;;;0.80;;
5620;SDS011;2832;50.864;12.186;2023-06-24T12:59:56;0.70;;;0.70;;
5620;SDS011;2832;50.864;12.186;2023-06-24T13:02:51;0.80;;;0.80;;
5620;SDS011;2832;50.864;12.186;2023-06-24T13:05:40;0.83;;;0.83;;
5620;SDS011;2832;50.864;12.186;2023-06-24T13:08:27;0.80;;;0.80;;
5620;SDS011;2832;50.864;12.186;2023-06-24T13:11:16;0.80;;;0.80;;
5620;SDS011;2832;50.864;12.186;2023-06-24T13:14:08;0.80;;;0.80;;
5620;SDS011;2832;50.864;12.186;2023-06-24T13:17:01;0.80;;;0.80;;
5620;SDS011;2832;50.864;12.186;2023-06-24T13:19:50;0.80;;;0.80;;
5620;SDS011;2832;50.864;12.186;2023-06-24T13:22:44;0.80;;;0.80;;
5620;SDS011;2832;50.864;12.186;2023-06-24T13:25:38;0.80;;;0.80;;
5620;SDS011;2832;50.864;12.186;2023-06-24T13:28:31;0.90;;;0.90;;
5620;SDS011;2832;50.864;12.186;2023-06-24T13:31:25;0.80;;;0.80;;
5620;SDS011;2832;50.864;12.186;2023-06-24T13:34:13;0.80;;;0.80;;
5620;SDS011;2832;50.864;12.186;2023-06-24T13:37:03;0.70;;;0.70;;
5620;SDS011;2832;50.864;12.186;2023-06-24T13:39:54;0.80;;;0.80;;
5620;SDS011;2832;50.864;12.186;2023-06-24T13:42:51;0.80;;;0.80;;
5620;SDS011;2832;50.864;12.186;2023-06-24T13:45:43;0.80;;;0.80;;
5620;SDS011;2832;50.864;12.186;2023-06-24T13:48:45;0.80;;;0.80;;
5620;SDS011;2832;50.864;12.186;2023-06-24T13:51:36;0.80;;;0.80;;
5620;SDS011;2832;50.864;12.186;2023-06-24T13:54:25;0.70;;;0.70;;
5620;SDS011;2832;50.864;12.186;2023-06-24T13:57:19;0.70;;;0.70;;
5620;SDS011;2832;50.864;12.186;2023-06-24T14:00:08;0.70;;;0.70;;
5620;SDS011;2832;50.864;12.186;2023-06-24T14:03:07;0.70;;;0.70;;
5620;SDS011;2832;50.864;12.186;2023-06-24T14:06:10;0.80;;;0.80;;
5620;SDS011;2832;50.864;12.186;2023-06-24T14:09:03;0.70;;;0.70;;
5620;SDS011;2832;50.864;12.186;2023-06-24T14:11:59;0.80;;;0.80;;
5620;SDS011;2832;50.864;12.186;2023-06-24T14:14:51;0.80;;;0.80;;
5620;SDS011;2832;50.864;12.186;2023-06-24T14:17:41;0.80;;;0.80;;
5620;SDS011;2832;50.864;12.186;2023-06-24T14:20:29;0.80;;;0.80;;
5620;SDS011;2832;50.864;12.186;2023-06-24T14:23:20;0.80;;;0.80;;
5620;SDS011;2832;50.864;12.186;2023-06-24T14:26:16;0.80;;;0.80;;
5620;SDS011;2832;50.864;12.186;2023-06-24T14:29:14;0.80;;;0.80;;
5620;SDS011;2832;50.864;12.186;2023-06-24T14:32:05;0.80;;;0.80;;
5620;SDS011;2832;50.864;12.186;2023-06-24T14:34:55;0.70;;;0.70;;
5620;SDS011;2832;50.864;12.186;2023-06-24T14:37:51;0.80;;;0.80;;
5620;SDS011;2832;50.864;12.186;2023-06-24T14:40:45;0.80;;;0.80;;
5620;SDS011;2832;50.864;12.186;2023-06-24T14:43:33;0.80;;;0.80;;
5620;SDS011;2832;50.864;12.186;2023-06-24T14:46:21;0.80;;;0.80;;
5620;SDS011;2832;50.864;12.186;2023-06-24T14:49:10;0.70;;;0.70;;
5620;SDS011;2832;50.864;12.186;2023-06-24T14:52:04;0.73;;;0.73;;
5620;SDS011;2832;50.864;12.186;2023-06-24T14:54:54;0.70;;;0.70;;
5620;SDS011;2832;50.864;12.186;2023-06-24T14:57:46;0.70;;;0.70;;
5620;SDS011;2832;50.864;12.186;2023-06-24T15:00:40;0.80;;;0.80;;
5620;SDS011;2832;50.864;12.186;2023-06-24T15:03:29;0.70;;;0.70;;
5620;SDS011;2832;50.864;12.186;2023-06-24T15:06:19;0.80;;;0.80;;
5620;SDS011;2832;50.864;12.186;2023-06-24T15:09:11;0.70;;;0.70;;
5620;SDS011;2832;50.864;12.186;2023-06-24T15:12:01;0.80;;;0.80;;
5620;SDS011;2832;50.864;12.186;2023-06-24T15:14:56;0.70;;;0.70;;
5620;SDS011;2832;50.864;12.186;2023-06-24T15:17:47;0.70;;;0.70;;
5620;SDS011;2832;50.864;12.186;2023-06-24T15:20:58;0.80;;;0.80;;
5620;SDS011;2832;50.864;12.186;2023-06-24T15:23:46;0.80;;;0.80;;
5620;SDS011;2832;50.864;12.186;2023-06-24T15:26:36;0.80;;;0.80;;
5620;SDS011;2832;50.864;12.186;2023-06-24T15:29:31;0.80;;;0.80;;
5620;SDS011;2832;50.864;12.186;2023-06-24T15:32:27;0.80;;;0.80;;
5620;SDS011;2832;50.864;12.186;2023-06-24T15:35:21;0.80;;;0.80;;
5620;SDS011;2832;50.864;12.186;2023-06-24T15:38:18;0.70;;;0.70;;
5620;SDS011;2832;50.864;12.186;2023-06-24T15:41:15;0.80;;;0.80;;
5620;SDS011;2832;50.864;12.186;2023-06-24T15:44:10;0.83;;;0.83;;
5620;SDS011;2832;50.864;12.186;2023-06-24T15:47:00;0.80;;;0.80;;
5620;SDS011;2832;50.864;12.186;2023-06-24T15:49:52;0.80;;;0.80;;
5620;SDS011;2832;50.864;12.186;2023-06-24T15:52:42;0.80;;;0.80;;
5620;SDS011;2832;50.864;12.186;2023-06-24T15:55:38;0.80;;;0.80;;
5620;SDS011;2832;50.864;12.186;2023-06-24T15:58:30;0.90;;;0.90;;
5620;SDS011;2832;50.864;12.186;2023-06-24T16:01:18;0.70;;;0.70;;
5620;SDS011;2832;50.864;12.186;2023-06-24T16:04:13;0.70;;;0.70;;
5620;SDS011;2832;50.864;12.186;2023-06-24T16:07:02;0.70;;;0.70;;
5620;SDS011;2832;50.864;12.186;2023-06-24T16:09:50;0.80;;;0.80;;
5620;SDS011;2832;50.864;12.186;2023-06-24T16:12:40;0.70;;;0.70;;
5620;SDS011;2832;50.864;12.186;2023-06-24T16:15:28;0.70;;;0.70;;
5620;SDS011;2832;50.864;12.186;2023-06-24T16:18:16;0.70;;;0.70;;
5620;SDS011;2832;50.864;12.186;2023-06-24T16:21:04;0.70;;;0.70;;
5620;SDS011;2832;50.864;12.186;2023-06-24T16:23:53;0.70;;;0.70;;
5620;SDS011;2832;50.864;12.186;2023-06-24T16:26:41;0.80;;;0.80;;
5620;SDS011;2832;50.864;12.186;2023-06-24T16:29:29;0.80;;;0.80;;
5620;SDS011;2832;50.864;12.186;2023-06-24T16:32:17;0.80;;;0.80;;
5620;SDS011;2832;50.864;12.186;2023-06-24T16:35:05;0.80;;;0.80;;
5620;SDS011;2832;50.864;12.186;2023-06-24T16:37:56;0.70;;;0.70;;
5620;SDS011;2832;50.864;12.186;2023-06-24T16:40:49;0.70;;;0.70;;
5620;SDS011;2832;50.864;12.186;2023-06-24T16:43:39;0.77;;;0.77;;
5620;SDS011;2832;50.864;12.186;2023-06-24T16:46:34;0.80;;;0.80;;
5620;SDS011;2832;50.864;12.186;2023-06-24T16:49:25;0.80;;;0.80;;
5620;SDS011;2832;50.864;12.186;2023-06-24T16:52:16;0.80;;;0.80;;
5620;SDS011;2832;50.864;12.186;2023-06-24T16:55:13;0.80;;;0.80;;
5620;SDS011;2832;50.864;12.186;2023-06-24T16:58:05;0.80;;;0.80;;
5620;SDS011;2832;50.864;12.186;2023-06-24T17:00:53;0.80;;;0.80;;
5620;SDS011;2832;50.864;12.186;2023-06-24T17:03:41;0.80;;;0.80;;
5620;SDS011;2832;50.864;12.186;2023-06-24T17:06:31;0.70;;;0.70;;
5620;SDS011;2832;50.864;12.186;2023-06-24T17:09:37;0.70;;;0.70;;
5620;SDS011;2832;50.864;12.186;2023-06-24T17:12:25;0.80;;;0.80;;
5620;SDS011;2832;50.864;12.186;2023-06-24T17:15:17;0.70;;;0.70;;
5620;SDS011;2832;50.864;12.186;2023-06-24T17:18:05;0.80;;;0.80;;
5620;SDS011;2832;50.864;12.186;2023-06-24T17:20:57;0.80;;;0.80;;
5620;SDS011;2832;50.864;12.186;2023-06-24T17:23:45;0.70;;;0.70;;
5620;SDS011;2832;50.864;12.186;2023-06-24T17:26:33;0.80;;;0.80;;
5620;SDS011;2832;50.864;12.186;2023-06-24T17:29:23;0.70;;;0.70;;
5620;SDS011;2832;50.864;12.186;2023-06-24T17:32:13;0.70;;;0.70;;
5620;SDS011;2832;50.864;12.186;2023-06-24T17:35:03;0.70;;;0.70;;
5620;SDS011;2832;50.864;12.186;2023-06-24T17:38:01;0.70;;;0.70;;
5620;SDS011;2832;50.864;12.186;2023-06-24T17:40:56;0.70;;;0.70;;